sensor_id;sensor_type;location;lat;lon;timestamp;temperature;humidity
47845;DHT22;33605;48.822;8.796;2022-12-19T00:03:34;4.00;46.40
47845;DHT22;33605;48.822;8.796;2022-12-19T00:06:03;4.00;46.40
47845;DHT22;33605;48.822;8.796;2022-12-19T00:08:29;4.00;46.40
47845;DHT22;33605;48.822;8.796;2022-12-19T00:10:59;4.00;46.40
47845;DHT22;33605;48.822;8.796;2022-12-19T00:13:25;4.00;46.40
47845;DHT22;33605;48.822;8.796;2022-12-19T00:15:51;4.00;46.30
47845;DHT22;33605;48.822;8.796;2022-12-19T00:18:17;4.00;46.40
47845;DHT22;33605;48.822;8.796;2022-12-19T00:20:43;4.00;46.40
47845;DHT22;33605;48.822;8.796;2022-12-19T00:23:09;4.00;46.40
47845;DHT22;33605;48.822;8.796;2022-12-19T00:25:34;4.00;46.40
47845;DHT22;33605;48.822;8.796;2022-12-19T00:28:00;4.00;46.40
47845;DHT22;33605;48.822;8.796;2022-12-19T00:30:28;4.10;46.50
47845;DHT22;33605;48.822;8.796;2022-12-19T00:32:54;4.10;46.70
47845;DHT22;33605;48.822;8.796;2022-12-19T00:35:19;4.10;46.70
47845;DHT22;33605;48.822;8.796;2022-12-19T00:37:45;4.00;46.60
47845;DHT22;33605;48.822;8.796;2022-12-19T00:40:11;4.00;46.60
47845;DHT22;33605;48.822;8.796;2022-12-19T00:42:36;4.10;46.60
47845;DHT22;33605;48.822;8.796;2022-12-19T00:45:08;4.00;46.50
47845;DHT22;33605;48.822;8.796;2022-12-19T00:47:34;4.10;46.60
47845;DHT22;33605;48.822;8.796;2022-12-19T00:49:59;4.10;46.50
47845;DHT22;33605;48.822;8.796;2022-12-19T00:52:25;4.00;46.40
47845;DHT22;33605;48.822;8.796;2022-12-19T00:54:51;4.00;46.40
47845;DHT22;33605;48.822;8.796;2022-12-19T00:57:16;4.00;46.30
47845;DHT22;33605;48.822;8.796;2022-12-19T00:59:42;4.00;46.30
47845;DHT22;33605;48.822;8.796;2022-12-19T01:02:07;4.00;46.30
47845;DHT22;33605;48.822;8.796;2022-12-19T01:04:33;4.00;46.40
47845;DHT22;33605;48.822;8.796;2022-12-19T01:07:00;4.00;46.40
47845;DHT22;33605;48.822;8.796;2022-12-19T01:09:26;4.00;46.50
47845;DHT22;33605;48.822;8.796;2022-12-19T01:11:51;4.00;46.50
47845;DHT22;33605;48.822;8.796;2022-12-19T01:14:35;4.00;46.60
47845;DHT22;33605;48.822;8.796;2022-12-19T01:17:01;4.00;46.50
47845;DHT22;33605;48.822;8.796;2022-12-19T01:19:26;4.10;46.60
47845;DHT22;33605;48.822;8.796;2022-12-19T01:21:52;4.10;46.60
47845;DHT22;33605;48.822;8.796;2022-12-19T01:24:18;4.10;46.60
47845;DHT22;33605;48.822;8.796;2022-12-19T01:26:43;4.10;46.60
47845;DHT22;33605;48.822;8.796;2022-12-19T01:29:09;4.10;46.60
47845;DHT22;33605;48.822;8.796;2022-12-19T01:31:34;4.10;46.60
47845;DHT22;33605;48.822;8.796;2022-12-19T01:34:00;4.10;46.60
47845;DHT22;33605;48.822;8.796;2022-12-19T01:36:26;4.10;47.10
47845;DHT22;33605;48.822;8.796;2022-12-19T01:38:55;4.10;46.50
47845;DHT22;33605;48.822;8.796;2022-12-19T01:41:21;4.20;46.70
47845;DHT22;33605;48.822;8.796;2022-12-19T01:44:02;4.20;46.70
47845;DHT22;33605;48.822;8.796;2022-12-19T01:46:41;4.20;46.80
47845;DHT22;33605;48.822;8.796;2022-12-19T01:49:32;4.20;46.80
47845;DHT22;33605;48.822;8.796;2022-12-19T01:52:02;4.20;46.80
47845;DHT22;33605;48.822;8.796;2022-12-19T01:54:32;4.20;46.70
47845;DHT22;33605;48.822;8.796;2022-12-19T01:57:00;4.30;46.90
47845;DHT22;33605;48.822;8.796;2022-12-19T01:59:31;4.30;46.90
47845;DHT22;33605;48.822;8.796;2022-12-19T02:02:09;4.30;46.90
47845;DHT22;33605;48.822;8.796;2022-12-19T02:04:35;4.30;46.90
47845;DHT22;33605;48.822;8.796;2022-12-19T02:07:03;4.30;46.90
47845;DHT22;33605;48.822;8.796;2022-12-19T02:09:29;4.30;47.10
47845;DHT22;33605;48.822;8.796;2022-12-19T02:11:55;4.40;47.30
47845;DHT22;33605;48.822;8.796;2022-12-19T02:14:23;4.40;47.30
47845;DHT22;33605;48.822;8.796;2022-12-19T02:17:18;4.40;47.30
47845;DHT22;33605;48.822;8.796;2022-12-19T02:23:07;4.40;47.50
47845;DHT22;33605;48.822;8.796;2022-12-19T02:25:59;4.40;47.50
47845;DHT22;33605;48.822;8.796;2022-12-19T02:31:22;4.40;47.60
47845;DHT22;33605;48.822;8.796;2022-12-19T02:37:08;4.40;47.80
47845;DHT22;33605;48.822;8.796;2022-12-19T02:39:55;4.40;47.90
47845;DHT22;33605;48.822;8.796;2022-12-19T02:42:28;4.40;47.90
47845;DHT22;33605;48.822;8.796;2022-12-19T02:44:56;4.40;47.90
47845;DHT22;33605;48.822;8.796;2022-12-19T02:47:26;4.50;48.10
47845;DHT22;33605;48.822;8.796;2022-12-19T02:49:52;4.50;48.20
47845;DHT22;33605;48.822;8.796;2022-12-19T02:54:44;4.50;48.50
47845;DHT22;33605;48.822;8.796;2022-12-19T02:57:21;4.50;48.70
47845;DHT22;33605;48.822;8.796;2022-12-19T03:00:09;4.60;49.00
47845;DHT22;33605;48.822;8.796;2022-12-19T03:02:41;4.60;49.10
47845;DHT22;33605;48.822;8.796;2022-12-19T03:05:31;4.60;49.10
47845;DHT22;33605;48.822;8.796;2022-12-19T03:08:16;4.60;49.20
47845;DHT22;33605;48.822;8.796;2022-12-19T03:11:02;4.70;49.30
47845;DHT22;33605;48.822;8.796;2022-12-19T03:13:36;4.70;49.20
47845;DHT22;33605;48.822;8.796;2022-12-19T03:16:04;4.70;49.20
47845;DHT22;33605;48.822;8.796;2022-12-19T03:18:32;4.80;49.30
47845;DHT22;33605;48.822;8.796;2022-12-19T03:21:08;4.80;49.30
47845;DHT22;33605;48.822;8.796;2022-12-19T03:23:35;4.80;49.40
47845;DHT22;33605;48.822;8.796;2022-12-19T03:26:17;4.80;50.00
47845;DHT22;33605;48.822;8.796;2022-12-19T03:29:18;4.80;49.40
47845;DHT22;33605;48.822;8.796;2022-12-19T03:31:46;4.80;49.30
47845;DHT22;33605;48.822;8.796;2022-12-19T03:34:19;4.90;49.30
47845;DHT22;33605;48.822;8.796;2022-12-19T03:36:48;4.90;49.30
47845;DHT22;33605;48.822;8.796;2022-12-19T03:39:17;4.90;49.30
47845;DHT22;33605;48.822;8.796;2022-12-19T03:41:44;5.00;49.40
47845;DHT22;33605;48.822;8.796;2022-12-19T03:44:32;5.00;49.40
47845;DHT22;33605;48.822;8.796;2022-12-19T03:47:09;5.00;49.30
47845;DHT22;33605;48.822;8.796;2022-12-19T03:49:36;5.00;49.30
47845;DHT22;33605;48.822;8.796;2022-12-19T03:52:15;5.10;49.40
47845;DHT22;33605;48.822;8.796;2022-12-19T03:54:51;5.10;49.30
47845;DHT22;33605;48.822;8.796;2022-12-19T03:57:32;5.10;49.30
47845;DHT22;33605;48.822;8.796;2022-12-19T04:00:07;5.10;49.20
47845;DHT22;33605;48.822;8.796;2022-12-19T04:02:37;5.20;49.20
47845;DHT22;33605;48.822;8.796;2022-12-19T04:05:09;5.20;49.20
47845;DHT22;33605;48.822;8.796;2022-12-19T04:07:38;5.20;49.20
47845;DHT22;33605;48.822;8.796;2022-12-19T04:10:10;5.30;49.30
47845;DHT22;33605;48.822;8.796;2022-12-19T04:12:44;5.30;49.40
47845;DHT22;33605;48.822;8.796;2022-12-19T04:15:11;5.30;49.50
47845;DHT22;33605;48.822;8.796;2022-12-19T04:17:53;5.40;49.50
47845;DHT22;33605;48.822;8.796;2022-12-19T04:20:23;5.40;49.70
47845;DHT22;33605;48.822;8.796;2022-12-19T04:23:20;5.40;49.70
47845;DHT22;33605;48.822;8.796;2022-12-19T04:25:50;5.40;49.80
47845;DHT22;33605;48.822;8.796;2022-12-19T04:28:29;5.50;49.80
47845;DHT22;33605;48.822;8.796;2022-12-19T04:30:58;5.50;49.90
47845;DHT22;33605;48.822;8.796;2022-12-19T04:33:24;5.50;49.90
47845;DHT22;33605;48.822;8.796;2022-12-19T04:35:50;5.50;49.80
47845;DHT22;33605;48.822;8.796;2022-12-19T04:38:16;5.50;50.00
47845;DHT22;33605;48.822;8.796;2022-12-19T04:40:42;5.60;50.10
47845;DHT22;33605;48.822;8.796;2022-12-19T04:43:07;5.50;50.00
47845;DHT22;33605;48.822;8.796;2022-12-19T04:45:33;5.50;50.00
47845;DHT22;33605;48.822;8.796;2022-12-19T04:47:59;5.60;50.10
47845;DHT22;33605;48.822;8.796;2022-12-19T04:50:24;5.60;50.20
47845;DHT22;33605;48.822;8.796;2022-12-19T04:52:50;5.60;50.20
47845;DHT22;33605;48.822;8.796;2022-12-19T04:55:15;5.60;50.40
47845;DHT22;33605;48.822;8.796;2022-12-19T04:57:41;5.60;50.50
47845;DHT22;33605;48.822;8.796;2022-12-19T05:00:07;5.60;50.50
47845;DHT22;33605;48.822;8.796;2022-12-19T05:02:34;5.60;50.60
47845;DHT22;33605;48.822;8.796;2022-12-19T05:05:00;5.60;50.40
47845;DHT22;33605;48.822;8.796;2022-12-19T05:07:25;5.60;50.40
47845;DHT22;33605;48.822;8.796;2022-12-19T05:09:51;5.60;50.50
47845;DHT22;33605;48.822;8.796;2022-12-19T05:12:16;5.60;50.50
47845;DHT22;33605;48.822;8.796;2022-12-19T05:14:42;5.70;50.60
47845;DHT22;33605;48.822;8.796;2022-12-19T05:17:08;5.70;50.60
47845;DHT22;33605;48.822;8.796;2022-12-19T05:19:33;5.70;50.60
47845;DHT22;33605;48.822;8.796;2022-12-19T05:21:59;5.70;50.60
47845;DHT22;33605;48.822;8.796;2022-12-19T05:24:24;5.70;50.50
47845;DHT22;33605;48.822;8.796;2022-12-19T05:26:50;5.80;50.60
47845;DHT22;33605;48.822;8.796;2022-12-19T05:29:15;5.80;50.60
47845;DHT22;33605;48.822;8.796;2022-12-19T05:31:41;5.80;50.60
47845;DHT22;33605;48.822;8.796;2022-12-19T05:34:07;5.90;50.70
47845;DHT22;33605;48.822;8.796;2022-12-19T05:36:33;5.90;50.60
47845;DHT22;33605;48.822;8.796;2022-12-19T05:38:58;5.90;50.60
47845;DHT22;33605;48.822;8.796;2022-12-19T05:41:24;5.90;50.50
47845;DHT22;33605;48.822;8.796;2022-12-19T05:43:52;5.90;50.50
47845;DHT22;33605;48.822;8.796;2022-12-19T05:46:19;5.90;50.60
47845;DHT22;33605;48.822;8.796;2022-12-19T05:48:45;6.00;50.60
47845;DHT22;33605;48.822;8.796;2022-12-19T05:51:11;6.00;50.70
47845;DHT22;33605;48.822;8.796;2022-12-19T05:53:38;6.00;50.60
47845;DHT22;33605;48.822;8.796;2022-12-19T05:56:05;6.00;50.60
47845;DHT22;33605;48.822;8.796;2022-12-19T05:58:32;6.00;50.70
47845;DHT22;33605;48.822;8.796;2022-12-19T06:03:34;6.10;51.00
47845;DHT22;33605;48.822;8.796;2022-12-19T06:06:04;6.10;51.00
47845;DHT22;33605;48.822;8.796;2022-12-19T06:08:31;6.10;51.20
47845;DHT22;33605;48.822;8.796;2022-12-19T06:10:58;6.10;51.20
47845;DHT22;33605;48.822;8.796;2022-12-19T06:13:25;6.10;51.20
47845;DHT22;33605;48.822;8.796;2022-12-19T06:15:59;6.10;51.30
47845;DHT22;33605;48.822;8.796;2022-12-19T06:18:26;6.10;51.40
47845;DHT22;33605;48.822;8.796;2022-12-19T06:21:12;6.10;51.50
47845;DHT22;33605;48.822;8.796;2022-12-19T06:23:38;6.10;51.80
47845;DHT22;33605;48.822;8.796;2022-12-19T06:26:05;6.10;51.70
47845;DHT22;33605;48.822;8.796;2022-12-19T06:28:32;6.10;51.80
47845;DHT22;33605;48.822;8.796;2022-12-19T06:30:59;6.10;52.00
47845;DHT22;33605;48.822;8.796;2022-12-19T06:33:26;6.10;52.00
47845;DHT22;33605;48.822;8.796;2022-12-19T06:36:00;6.10;52.20
47845;DHT22;33605;48.822;8.796;2022-12-19T06:38:26;6.10;52.20
47845;DHT22;33605;48.822;8.796;2022-12-19T06:40:52;6.10;52.50
47845;DHT22;33605;48.822;8.796;2022-12-19T06:43:36;6.10;53.30
47845;DHT22;33605;48.822;8.796;2022-12-19T06:46:02;6.10;52.80
47845;DHT22;33605;48.822;8.796;2022-12-19T06:48:28;6.00;53.70
47845;DHT22;33605;48.822;8.796;2022-12-19T06:50:53;6.00;53.40
47845;DHT22;33605;48.822;8.796;2022-12-19T06:53:19;6.00;53.50
47845;DHT22;33605;48.822;8.796;2022-12-19T06:55:46;6.00;53.50
47845;DHT22;33605;48.822;8.796;2022-12-19T06:58:12;6.00;53.60
47845;DHT22;33605;48.822;8.796;2022-12-19T07:00:37;6.10;53.70
47845;DHT22;33605;48.822;8.796;2022-12-19T07:03:05;6.10;53.70
47845;DHT22;33605;48.822;8.796;2022-12-19T07:05:32;6.10;53.70
47845;DHT22;33605;48.822;8.796;2022-12-19T07:07:58;6.20;53.90
47845;DHT22;33605;48.822;8.796;2022-12-19T07:10:23;6.20;53.90
47845;DHT22;33605;48.822;8.796;2022-12-19T07:12:49;6.30;54.00
47845;DHT22;33605;48.822;8.796;2022-12-19T07:15:15;6.30;53.90
47845;DHT22;33605;48.822;8.796;2022-12-19T07:17:40;6.40;54.10
47845;DHT22;33605;48.822;8.796;2022-12-19T07:20:07;6.40;54.10
47845;DHT22;33605;48.822;8.796;2022-12-19T07:22:33;6.40;54.10
47845;DHT22;33605;48.822;8.796;2022-12-19T07:25:02;6.50;54.20
47845;DHT22;33605;48.822;8.796;2022-12-19T07:27:28;6.50;54.20
47845;DHT22;33605;48.822;8.796;2022-12-19T07:29:54;6.50;54.20
47845;DHT22;33605;48.822;8.796;2022-12-19T07:32:20;6.60;54.30
47845;DHT22;33605;48.822;8.796;2022-12-19T07:34:46;6.60;54.20
47845;DHT22;33605;48.822;8.796;2022-12-19T07:37:12;6.70;54.20
47845;DHT22;33605;48.822;8.796;2022-12-19T07:39:37;6.80;54.30
47845;DHT22;33605;48.822;8.796;2022-12-19T07:42:03;6.80;54.20
47845;DHT22;33605;48.822;8.796;2022-12-19T07:44:29;6.80;54.20
47845;DHT22;33605;48.822;8.796;2022-12-19T07:46:54;6.90;54.20
47845;DHT22;33605;48.822;8.796;2022-12-19T07:49:20;6.90;54.10
47845;DHT22;33605;48.822;8.796;2022-12-19T07:51:46;7.00;54.10
47845;DHT22;33605;48.822;8.796;2022-12-19T07:54:11;7.00;54.00
47845;DHT22;33605;48.822;8.796;2022-12-19T07:56:37;7.00;53.90
47845;DHT22;33605;48.822;8.796;2022-12-19T07:59:02;7.10;54.20
47845;DHT22;33605;48.822;8.796;2022-12-19T08:01:28;7.20;53.60
47845;DHT22;33605;48.822;8.796;2022-12-19T08:03:54;7.10;53.90
47845;DHT22;33605;48.822;8.796;2022-12-19T08:06:20;7.20;54.00
47845;DHT22;33605;48.822;8.796;2022-12-19T08:08:45;7.20;54.00
47845;DHT22;33605;48.822;8.796;2022-12-19T08:11:13;7.30;54.20
47845;DHT22;33605;48.822;8.796;2022-12-19T08:16:07;7.20;54.10
47845;DHT22;33605;48.822;8.796;2022-12-19T08:18:32;7.20;54.60
47845;DHT22;33605;48.822;8.796;2022-12-19T08:20:58;7.20;54.60
47845;DHT22;33605;48.822;8.796;2022-12-19T08:23:24;7.20;54.70
47845;DHT22;33605;48.822;8.796;2022-12-19T08:26:01;7.20;54.70
47845;DHT22;33605;48.822;8.796;2022-12-19T08:28:29;7.30;54.90
47845;DHT22;33605;48.822;8.796;2022-12-19T08:30:54;7.30;54.90
47845;DHT22;33605;48.822;8.796;2022-12-19T08:33:20;7.30;54.80
47845;DHT22;33605;48.822;8.796;2022-12-19T08:35:46;7.30;54.80
47845;DHT22;33605;48.822;8.796;2022-12-19T08:38:11;7.40;54.90
47845;DHT22;33605;48.822;8.796;2022-12-19T14:34:14;7.40;55.40
47845;DHT22;33605;48.822;8.796;2022-12-19T14:36:47;11.50;45.50
47845;DHT22;33605;48.822;8.796;2022-12-19T14:39:16;11.50;45.30
47845;DHT22;33605;48.822;8.796;2022-12-19T14:41:47;11.50;45.50
47845;DHT22;33605;48.822;8.796;2022-12-19T14:44:53;11.40;45.60
47845;DHT22;33605;48.822;8.796;2022-12-19T14:47:54;11.40;46.50
47845;DHT22;33605;48.822;8.796;2022-12-19T14:50:45;11.30;45.90
47845;DHT22;33605;48.822;8.796;2022-12-19T14:53:19;11.30;46.10
47845;DHT22;33605;48.822;8.796;2022-12-19T14:55:45;11.30;46.20
47845;DHT22;33605;48.822;8.796;2022-12-19T14:58:17;11.20;46.10
47845;DHT22;33605;48.822;8.796;2022-12-19T15:00:49;11.20;46.40
47845;DHT22;33605;48.822;8.796;2022-12-19T15:03:23;11.10;46.50
47845;DHT22;33605;48.822;8.796;2022-12-19T15:05:50;11.10;46.70
47845;DHT22;33605;48.822;8.796;2022-12-19T15:08:29;11.00;46.80
47845;DHT22;33605;48.822;8.796;2022-12-19T15:11:00;11.00;47.00
47845;DHT22;33605;48.822;8.796;2022-12-19T15:13:55;10.90;47.20
47845;DHT22;33605;48.822;8.796;2022-12-19T15:16:30;10.90;47.50
47845;DHT22;33605;48.822;8.796;2022-12-19T15:18:58;10.80;47.60
47845;DHT22;33605;48.822;8.796;2022-12-19T15:21:24;10.80;47.70
47845;DHT22;33605;48.822;8.796;2022-12-19T15:23:50;10.70;47.90
47845;DHT22;33605;48.822;8.796;2022-12-19T15:26:19;10.60;48.10
47845;DHT22;33605;48.822;8.796;2022-12-19T15:28:49;10.60;48.40
47845;DHT22;33605;48.822;8.796;2022-12-19T15:31:29;10.50;48.60
47845;DHT22;33605;48.822;8.796;2022-12-19T15:33:57;10.50;48.80
47845;DHT22;33605;48.822;8.796;2022-12-19T15:36:22;10.40;48.80
47845;DHT22;33605;48.822;8.796;2022-12-19T15:38:48;10.40;49.10
47845;DHT22;33605;48.822;8.796;2022-12-19T15:41:18;10.30;49.20
47845;DHT22;33605;48.822;8.796;2022-12-19T15:43:44;10.30;49.50
47845;DHT22;33605;48.822;8.796;2022-12-19T15:46:11;10.20;49.40
47845;DHT22;33605;48.822;8.796;2022-12-19T15:48:39;10.20;49.50
47845;DHT22;33605;48.822;8.796;2022-12-19T15:51:11;10.20;49.70
47845;DHT22;33605;48.822;8.796;2022-12-19T15:53:39;10.20;49.90
47845;DHT22;33605;48.822;8.796;2022-12-19T15:56:22;10.20;50.00
47845;DHT22;33605;48.822;8.796;2022-12-19T15:58:50;10.20;50.00
47845;DHT22;33605;48.822;8.796;2022-12-19T16:01:15;10.10;49.90
47845;DHT22;33605;48.822;8.796;2022-12-19T16:03:41;10.10;50.00
47845;DHT22;33605;48.822;8.796;2022-12-19T16:06:13;10.10;50.00
47845;DHT22;33605;48.822;8.796;2022-12-19T16:08:39;10.00;50.10
47845;DHT22;33605;48.822;8.796;2022-12-19T16:11:08;10.00;50.00
47845;DHT22;33605;48.822;8.796;2022-12-19T16:13:34;10.00;50.10
47845;DHT22;33605;48.822;8.796;2022-12-19T16:16:02;10.00;50.20
47845;DHT22;33605;48.822;8.796;2022-12-19T16:18:28;9.90;51.40
47845;DHT22;33605;48.822;8.796;2022-12-19T16:20:54;9.90;51.40
47845;DHT22;33605;48.822;8.796;2022-12-19T16:23:21;9.80;51.30
47845;DHT22;33605;48.822;8.796;2022-12-19T16:25:50;9.80;51.30
47845;DHT22;33605;48.822;8.796;2022-12-19T16:28:25;9.80;51.40
47845;DHT22;33605;48.822;8.796;2022-12-19T16:30:54;9.80;51.70
47845;DHT22;33605;48.822;8.796;2022-12-19T16:33:26;9.80;51.80
47845;DHT22;33605;48.822;8.796;2022-12-19T16:35:53;9.80;51.90
47845;DHT22;33605;48.822;8.796;2022-12-19T16:38:20;9.70;51.80
47845;DHT22;33605;48.822;8.796;2022-12-19T16:40:48;9.70;51.80
47845;DHT22;33605;48.822;8.796;2022-12-19T16:43:29;9.70;52.00
47845;DHT22;33605;48.822;8.796;2022-12-19T16:45:57;9.60;52.00
47845;DHT22;33605;48.822;8.796;2022-12-19T16:48:25;9.60;51.90
47845;DHT22;33605;48.822;8.796;2022-12-19T16:50:52;9.50;52.00
47845;DHT22;33605;48.822;8.796;2022-12-19T16:53:18;9.60;52.20
47845;DHT22;33605;48.822;8.796;2022-12-19T16:55:45;9.50;52.10
47845;DHT22;33605;48.822;8.796;2022-12-19T16:58:20;9.50;52.10
47845;DHT22;33605;48.822;8.796;2022-12-19T17:00:46;9.40;52.30
47845;DHT22;33605;48.822;8.796;2022-12-19T17:03:32;9.40;52.40
47845;DHT22;33605;48.822;8.796;2022-12-19T17:06:01;9.30;52.60
47845;DHT22;33605;48.822;8.796;2022-12-19T17:08:26;9.20;52.60
47845;DHT22;33605;48.822;8.796;2022-12-19T17:10:53;9.20;52.80
47845;DHT22;33605;48.822;8.796;2022-12-19T17:13:20;9.10;52.90
47845;DHT22;33605;48.822;8.796;2022-12-19T17:15:46;9.10;53.10
47845;DHT22;33605;48.822;8.796;2022-12-19T17:20:45;9.00;53.70
47845;DHT22;33605;48.822;8.796;2022-12-19T17:23:18;9.00;53.80
47845;DHT22;33605;48.822;8.796;2022-12-19T17:25:44;8.90;54.10
47845;DHT22;33605;48.822;8.796;2022-12-19T17:28:11;8.90;54.40
47845;DHT22;33605;48.822;8.796;2022-12-19T17:30:38;8.90;54.60
47845;DHT22;33605;48.822;8.796;2022-12-19T17:33:04;8.90;54.90
47845;DHT22;33605;48.822;8.796;2022-12-19T17:35:34;8.90;55.10
47845;DHT22;33605;48.822;8.796;2022-12-19T17:38:00;8.90;55.20
47845;DHT22;33605;48.822;8.796;2022-12-19T17:40:28;8.90;55.10
47845;DHT22;33605;48.822;8.796;2022-12-19T17:42:54;8.90;55.10
47845;DHT22;33605;48.822;8.796;2022-12-19T17:45:21;8.90;55.10
47845;DHT22;33605;48.822;8.796;2022-12-19T17:47:47;9.00;55.30
47845;DHT22;33605;48.822;8.796;2022-12-19T17:52:45;9.00;55.30
47845;DHT22;33605;48.822;8.796;2022-12-19T17:55:22;9.10;55.70
47845;DHT22;33605;48.822;8.796;2022-12-19T17:57:48;9.10;56.40
47845;DHT22;33605;48.822;8.796;2022-12-19T18:00:17;9.20;56.50
47845;DHT22;33605;48.822;8.796;2022-12-19T18:02:44;9.20;56.50
47845;DHT22;33605;48.822;8.796;2022-12-19T18:05:19;9.30;56.40
47845;DHT22;33605;48.822;8.796;2022-12-19T18:07:47;9.30;56.30
47845;DHT22;33605;48.822;8.796;2022-12-19T18:10:25;9.40;56.20
47845;DHT22;33605;48.822;8.796;2022-12-19T18:12:52;9.50;56.00
47845;DHT22;33605;48.822;8.796;2022-12-19T18:15:19;9.50;55.70
47845;DHT22;33605;48.822;8.796;2022-12-19T18:17:45;9.50;55.50
47845;DHT22;33605;48.822;8.796;2022-12-19T18:20:33;9.50;55.50
47845;DHT22;33605;48.822;8.796;2022-12-19T18:22:59;9.60;55.50
47845;DHT22;33605;48.822;8.796;2022-12-19T18:25:28;9.60;55.40
47845;DHT22;33605;48.822;8.796;2022-12-19T18:27:55;9.60;55.30
47845;DHT22;33605;48.822;8.796;2022-12-19T18:30:22;9.60;55.30
47845;DHT22;33605;48.822;8.796;2022-12-19T18:32:56;9.60;55.30
47845;DHT22;33605;48.822;8.796;2022-12-19T18:35:36;9.60;55.20
47845;DHT22;33605;48.822;8.796;2022-12-19T18:38:10;9.60;55.10
47845;DHT22;33605;48.822;8.796;2022-12-19T18:40:37;9.60;54.90
47845;DHT22;33605;48.822;8.796;2022-12-19T18:43:03;9.60;54.80
47845;DHT22;33605;48.822;8.796;2022-12-19T18:45:42;9.60;54.70
47845;DHT22;33605;48.822;8.796;2022-12-19T18:48:35;9.60;54.70
47845;DHT22;33605;48.822;8.796;2022-12-19T18:51:05;9.60;54.70
47845;DHT22;33605;48.822;8.796;2022-12-19T18:53:31;9.60;54.60
47845;DHT22;33605;48.822;8.796;2022-12-19T18:55:58;9.60;54.50
47845;DHT22;33605;48.822;8.796;2022-12-19T18:58:23;9.60;54.50
47845;DHT22;33605;48.822;8.796;2022-12-19T19:00:49;9.60;54.60
47845;DHT22;33605;48.822;8.796;2022-12-19T19:03:25;9.50;54.60
47845;DHT22;33605;48.822;8.796;2022-12-19T19:05:53;9.50;54.70
47845;DHT22;33605;48.822;8.796;2022-12-19T19:08:21;9.50;54.70
47845;DHT22;33605;48.822;8.796;2022-12-19T19:10:48;9.40;54.50
47845;DHT22;33605;48.822;8.796;2022-12-19T19:13:15;9.50;54.80
47845;DHT22;33605;48.822;8.796;2022-12-19T19:15:49;9.40;54.90
47845;DHT22;33605;48.822;8.796;2022-12-19T19:18:20;9.40;55.10
47845;DHT22;33605;48.822;8.796;2022-12-19T19:20:48;9.30;55.10
47845;DHT22;33605;48.822;8.796;2022-12-19T19:23:14;9.30;55.10
47845;DHT22;33605;48.822;8.796;2022-12-19T19:25:40;9.30;54.90
47845;DHT22;33605;48.822;8.796;2022-12-19T19:28:06;9.40;54.90
47845;DHT22;33605;48.822;8.796;2022-12-19T19:30:34;9.40;54.80
47845;DHT22;33605;48.822;8.796;2022-12-19T19:33:06;9.40;54.80
47845;DHT22;33605;48.822;8.796;2022-12-19T19:35:33;9.40;54.60
47845;DHT22;33605;48.822;8.796;2022-12-19T19:38:01;9.40;54.50
47845;DHT22;33605;48.822;8.796;2022-12-19T19:40:31;9.40;54.50
47845;DHT22;33605;48.822;8.796;2022-12-19T19:42:57;9.40;54.40
47845;DHT22;33605;48.822;8.796;2022-12-19T19:45:23;9.40;54.30
47845;DHT22;33605;48.822;8.796;2022-12-19T19:47:48;9.40;54.30
47845;DHT22;33605;48.822;8.796;2022-12-19T19:50:14;9.40;54.30
47845;DHT22;33605;48.822;8.796;2022-12-19T19:52:40;9.40;54.30
47845;DHT22;33605;48.822;8.796;2022-12-19T19:55:07;9.40;54.30
47845;DHT22;33605;48.822;8.796;2022-12-19T19:57:34;9.40;54.30
47845;DHT22;33605;48.822;8.796;2022-12-19T20:00:00;9.40;54.40
47845;DHT22;33605;48.822;8.796;2022-12-19T20:02:26;9.40;54.40
47845;DHT22;33605;48.822;8.796;2022-12-19T20:04:51;9.40;54.40
47845;DHT22;33605;48.822;8.796;2022-12-19T20:07:17;9.40;54.50
47845;DHT22;33605;48.822;8.796;2022-12-19T20:09:43;9.40;54.50
47845;DHT22;33605;48.822;8.796;2022-12-19T20:12:08;9.40;54.50
47845;DHT22;33605;48.822;8.796;2022-12-19T20:14:34;9.50;54.60
47845;DHT22;33605;48.822;8.796;2022-12-19T20:17:00;9.40;54.40
47845;DHT22;33605;48.822;8.796;2022-12-19T20:19:26;9.40;55.00
47845;DHT22;33605;48.822;8.796;2022-12-19T20:21:51;9.40;54.30
47845;DHT22;33605;48.822;8.796;2022-12-19T20:24:17;9.40;54.30
47845;DHT22;33605;48.822;8.796;2022-12-19T20:26:43;9.40;54.40
47845;DHT22;33605;48.822;8.796;2022-12-19T20:29:08;9.50;54.50
47845;DHT22;33605;48.822;8.796;2022-12-19T20:31:36;9.50;54.50
47845;DHT22;33605;48.822;8.796;2022-12-19T20:34:02;9.50;54.50
47845;DHT22;33605;48.822;8.796;2022-12-19T20:36:28;9.40;54.40
47845;DHT22;33605;48.822;8.796;2022-12-19T20:38:54;9.40;54.50
47845;DHT22;33605;48.822;8.796;2022-12-19T20:41:19;9.40;54.50
47845;DHT22;33605;48.822;8.796;2022-12-19T20:43:45;9.40;54.70
47845;DHT22;33605;48.822;8.796;2022-12-19T20:46:15;9.30;54.60
47845;DHT22;33605;48.822;8.796;2022-12-19T20:48:41;9.30;54.80
47845;DHT22;33605;48.822;8.796;2022-12-19T20:51:07;9.30;55.00
47845;DHT22;33605;48.822;8.796;2022-12-19T20:53:34;9.30;55.30
47845;DHT22;33605;48.822;8.796;2022-12-19T20:56:02;9.30;55.50
47845;DHT22;33605;48.822;8.796;2022-12-19T20:58:29;9.30;55.60
47845;DHT22;33605;48.822;8.796;2022-12-19T21:01:06;9.30;55.60
47845;DHT22;33605;48.822;8.796;2022-12-19T21:03:33;9.30;55.80
47845;DHT22;33605;48.822;8.796;2022-12-19T21:05:59;9.30;55.70
47845;DHT22;33605;48.822;8.796;2022-12-19T21:08:26;9.40;55.90
47845;DHT22;33605;48.822;8.796;2022-12-19T21:10:52;9.40;56.10
47845;DHT22;33605;48.822;8.796;2022-12-19T21:13:18;9.40;56.20
47845;DHT22;33605;48.822;8.796;2022-12-19T21:15:43;9.40;56.20
47845;DHT22;33605;48.822;8.796;2022-12-19T21:18:09;9.40;56.30
47845;DHT22;33605;48.822;8.796;2022-12-19T21:20:36;9.40;56.50
47845;DHT22;33605;48.822;8.796;2022-12-19T21:23:03;9.40;56.60
47845;DHT22;33605;48.822;8.796;2022-12-19T21:25:29;9.40;56.70
47845;DHT22;33605;48.822;8.796;2022-12-19T21:27:55;9.40;56.80
47845;DHT22;33605;48.822;8.796;2022-12-19T21:30:20;9.40;56.80
47845;DHT22;33605;48.822;8.796;2022-12-19T21:32:46;9.50;56.80
47845;DHT22;33605;48.822;8.796;2022-12-19T21:35:12;9.50;56.70
47845;DHT22;33605;48.822;8.796;2022-12-19T21:37:38;9.50;56.50
47845;DHT22;33605;48.822;8.796;2022-12-19T21:40:04;9.50;56.40
47845;DHT22;33605;48.822;8.796;2022-12-19T21:42:30;9.60;56.50
47845;DHT22;33605;48.822;8.796;2022-12-19T21:44:55;9.60;56.50
47845;DHT22;33605;48.822;8.796;2022-12-19T21:47:21;9.60;56.50
47845;DHT22;33605;48.822;8.796;2022-12-19T21:49:47;9.70;56.60
47845;DHT22;33605;48.822;8.796;2022-12-19T21:52:12;9.70;56.70
47845;DHT22;33605;48.822;8.796;2022-12-19T21:54:38;9.70;56.60
47845;DHT22;33605;48.822;8.796;2022-12-19T21:57:03;9.70;56.60
47845;DHT22;33605;48.822;8.796;2022-12-19T21:59:29;9.70;56.50
47845;DHT22;33605;48.822;8.796;2022-12-19T22:01:55;9.80;56.30
47845;DHT22;33605;48.822;8.796;2022-12-19T22:04:21;9.80;56.00
47845;DHT22;33605;48.822;8.796;2022-12-19T22:06:48;9.80;55.70
47845;DHT22;33605;48.822;8.796;2022-12-19T22:09:17;9.80;55.50
47845;DHT22;33605;48.822;8.796;2022-12-19T22:11:44;9.80;55.30
47845;DHT22;33605;48.822;8.796;2022-12-19T22:14:11;9.80;55.20